Time;durP1;ratioP1;P1;durP2;ratioP2;P2;SDS_P1;SDS_P2;PMS_P1;PMS_P2;Temp;Humidity;BMP_temperature;BMP_pressure;BME280_temperature;BME280_humidity;BME280_pressure;Samples;Min_cycle;Max_cycle;Signal;HPM_P1;HPM_P2
2021/06/25 00:00:18;;;;;;;17.52;9.58;;;;;;;22.15;73.04;97576.80;1706621;83;21001;-74
2021/06/25 00:02:50;;;;;;;19.65;9.43;;;;;;;22.10;73.22;97566.89;1706536;83;21057;-74
2021/06/25 00:05:20;;;;;;;19.77;8.95;;;;;;;22.04;74.44;97562.50;1706621;84;21033;-74
2021/06/25 00:07:47;;;;;;;20.97;10.10;;;;;;;21.98;73.42;97564.72;1717233;83;21048;-74
2021/06/25 00:10:16;;;;;;;16.82;9.30;;;;;;;21.95;73.57;97570.84;1734460;83;21006;-74
2021/06/25 00:12:46;;;;;;;17.60;8.65;;;;;;;21.90;73.82;97561.80;1734386;83;20954;-74
2021/06/25 00:15:16;;;;;;;12.70;8.03;;;;;;;21.89;74.07;97568.19;1673292;86;21042;-74
2021/06/25 00:17:46;;;;;;;16.15;9.83;;;;;;;21.87;75.00;97570.13;1699065;84;21057;-74
2021/06/25 00:20:14;;;;;;;13.08;8.00;;;;;;;21.87;74.64;97568.79;1699541;84;21041;-74
2021/06/25 00:22:43;;;;;;;16.15;7.80;;;;;;;21.82;77.35;97575.06;1700407;84;21001;-74
2021/06/25 00:25:12;;;;;;;14.50;7.65;;;;;;;21.82;75.42;97579.10;1700479;84;21526;-74
2021/06/25 00:27:39;;;;;;;12.55;7.80;;;;;;;21.83;75.12;97586.20;1700498;84;21057;-74
2021/06/25 00:30:10;;;;;;;16.82;8.25;;;;;;;21.80;75.70;97592.71;1700411;84;21005;-74
2021/06/25 00:32:40;;;;;;;21.33;8.40;;;;;;;21.80;75.27;97599.97;1700548;84;21017;-74
2021/06/25 00:35:09;;;;;;;16.42;8.78;;;;;;;21.82;75.33;97594.81;1700292;84;21053;-73
2021/06/25 00:37:39;;;;;;;19.07;8.95;;;;;;;21.79;76.78;97591.52;1700418;82;21072;-74
2021/06/25 00:40:10;;;;;;;16.95;8.03;;;;;;;21.75;76.07;97594.93;1700518;84;21005;-74
2021/06/25 00:42:38;;;;;;;21.82;7.30;;;;;;;21.73;75.60;97597.78;1700404;84;21029;-73
2021/06/25 00:45:16;;;;;;;16.80;7.67;;;;;;;21.76;75.74;97599.37;1700515;84;20993;-74
2021/06/25 00:47:50;;;;;;;20.80;8.78;;;;;;;21.71;75.54;97594.33;1700288;84;21041;-74
2021/06/25 00:50:21;;;;;;;22.98;9.00;;;;;;;21.71;75.93;97586.72;1681263;84;21096;-74
2021/06/25 00:52:56;;;;;;;14.25;8.15;;;;;;;21.70;75.40;97589.03;1672803;84;21486;-74
2021/06/25 00:55:29;;;;;;;18.12;8.78;;;;;;;21.60;77.00;97576.30;1672649;86;21053;-74
2021/06/25 00:57:59;;;;;;;21.40;8.38;;;;;;;21.46;77.71;97583.30;1672426;86;21021;-74
2021/06/25 01:00:30;;;;;;;24.92;8.20;;;;;;;21.35;77.00;97586.38;1672762;86;21457;-74
2021/06/25 01:02:57;;;;;;;13.68;7.97;;;;;;;21.31;77.03;97571.47;1672637;85;21509;-74
2021/06/25 01:05:26;;;;;;;21.48;9.20;;;;;;;21.29;76.63;97569.37;1664911;84;21036;-74
2021/06/25 01:07:54;;;;;;;17.37;9.28;;;;;;;21.31;76.30;97567.42;1672290;86;21109;-73
2021/06/25 01:10:26;;;;;;;13.18;8.25;;;;;;;21.29;76.28;97579.31;1672535;86;21017;-74
2021/06/25 01:12:55;;;;;;;15.55;8.20;;;;;;;21.26;76.19;97587.63;1672361;86;21025;-74
2021/06/25 01:15:24;;;;;;;15.30;7.92;;;;;;;21.26;76.35;97582.23;1672642;85;21004;-74
2021/06/25 01:17:51;;;;;;;16.02;8.38;;;;;;;21.27;76.24;97581.25;1672394;85;21044;-74
2021/06/25 01:20:28;;;;;;;16.95;7.80;;;;;;;21.23;76.45;97576.61;1694860;84;21371;-74
2021/06/25 01:22:59;;;;;;;17.55;8.90;;;;;;;21.20;76.13;97579.06;1700804;84;21049;-74
2021/06/25 01:25:31;;;;;;;19.17;8.83;;;;;;;21.18;76.08;97574.27;1700441;84;21060;-74
2021/06/25 01:28:08;;;;;;;17.15;8.75;;;;;;;21.15;77.38;97577.23;1700070;84;20981;-74
2021/06/25 01:30:43;;;;;;;20.62;8.53;;;;;;;21.12;77.27;97570.72;1700652;83;20973;-73
2021/06/25 01:33:14;;;;;;;14.25;8.28;;;;;;;21.08;76.62;97569.25;1700520;84;20989;-73
2021/06/25 01:35:45;;;;;;;12.10;8.10;;;;;;;21.02;76.67;97567.92;1700775;83;21001;-73
2021/06/25 01:38:13;;;;;;;14.35;8.00;;;;;;;20.99;77.02;97568.16;1702688;82;21552;-74
2021/06/25 01:40:42;;;;;;;19.92;9.15;;;;;;;20.93;77.29;97560.06;1713303;84;21021;-73
2021/06/25 01:43:12;;;;;;;15.10;9.20;;;;;;;20.88;77.23;97558.73;1713537;84;21020;-73
2021/06/25 01:45:42;;;;;;;17.17;9.50;;;;;;;20.83;77.41;97558.56;1713353;84;20989;-74
2021/06/25 01:48:12;;;;;;;14.18;8.90;;;;;;;20.78;78.05;97556.73;1713617;84;22181;-74
2021/06/25 01:50:43;;;;;;;15.58;8.73;;;;;;;20.74;79.29;97564.67;1686789;84;21013;-73
2021/06/25 01:53:16;;;;;;;16.25;8.78;;;;;;;20.68;80.14;97576.77;1684994;85;20980;-73
2021/06/25 01:55:46;;;;;;;16.27;8.63;;;;;;;20.65;79.67;97586.45;1684732;85;21044;-74
2021/06/25 01:58:25;;;;;;;18.92;8.35;;;;;;;20.62;80.29;97583.99;1685052;85;21061;-74
2021/06/25 02:01:17;;;;;;;14.20;7.85;;;;;;;20.62;79.63;97580.42;1684879;85;21059;-74
2021/06/25 02:03:48;;;;;;;13.65;8.20;;;;;;;20.65;79.11;97572.99;1684629;85;21119;-73
2021/06/25 02:06:18;;;;;;;14.00;9.05;;;;;;;20.68;78.94;97574.08;1685010;85;20989;-74
2021/06/25 02:08:48;;;;;;;13.55;8.33;;;;;;;20.75;78.85;97574.97;1684705;85;21092;-74
2021/06/25 02:11:18;;;;;;;16.15;8.28;;;;;;;20.77;78.85;97581.08;1684972;85;20969;-73
2021/06/25 02:13:47;;;;;;;21.87;9.03;;;;;;;20.82;78.92;97574.84;1684597;85;21497;-74
2021/06/25 02:16:15;;;;;;;18.67;9.13;;;;;;;20.80;78.87;97576.30;1684978;85;21406;-74
2021/06/25 02:18:45;;;;;;;16.73;8.78;;;;;;;20.77;79.31;97575.70;1706926;84;21012;-74
2021/06/25 02:21:12;;;;;;;17.90;9.13;;;;;;;20.75;78.84;97573.62;1713459;84;21294;-74
2021/06/25 02:23:41;;;;;;;17.92;8.25;;;;;;;20.77;79.02;97575.70;1713406;84;21023;-74
2021/06/25 02:26:09;;;;;;;23.98;8.95;;;;;;;20.74;79.09;97561.11;1713211;84;21080;-73
2021/06/25 02:28:38;;;;;;;17.87;8.90;;;;;;;20.70;79.35;97549.73;1712882;84;20985;-74
2021/06/25 02:31:05;;;;;;;15.90;8.08;;;;;;;20.65;79.25;97551.45;1713301;84;21026;-74
2021/06/25 02:33:34;;;;;;;14.55;8.83;;;;;;;20.61;79.00;97544.59;1713295;84;21064;-74
2021/06/25 02:36:03;;;;;;;17.20;8.60;;;;;;;20.62;78.71;97538.22;1685055;84;21067;-74
2021/06/25 02:38:33;;;;;;;18.77;8.30;;;;;;;20.60;78.58;97536.63;1713019;82;21096;-74
2021/06/25 02:41:02;;;;;;;13.40;8.40;;;;;;;20.57;78.56;97538.59;1713491;84;21005;-74
2021/06/25 02:43:29;;;;;;;17.75;8.08;;;;;;;20.50;78.59;97540.52;1713320;83;21030;-74
2021/06/25 02:45:59;;;;;;;15.60;8.53;;;;;;;20.42;78.86;97539.29;1713326;84;21583;-73
2021/06/25 02:48:28;;;;;;;18.35;9.90;;;;;;;20.38;78.76;97535.12;1709896;84;21039;-74
2021/06/25 02:50:59;;;;;;;21.12;9.20;;;;;;;20.34;78.73;97531.45;1684835;85;21494;-74
2021/06/25 02:53:28;;;;;;;20.00;8.80;;;;;;;20.34;78.57;97535.48;1685135;85;21012;-74
2021/06/25 02:55:58;;;;;;;19.17;9.33;;;;;;;20.33;79.72;97539.13;1684891;85;21120;-74
2021/06/25 02:58:27;;;;;;;16.67;8.78;;;;;;;20.30;78.82;97538.87;1685316;84;21429;-74
2021/06/25 03:00:57;;;;;;;18.37;9.13;;;;;;;20.27;80.45;97541.31;1684906;85;21036;-74
2021/06/25 03:03:25;;;;;;;18.55;9.73;;;;;;;20.24;79.03;97538.02;1684934;85;21008;-74
2021/06/25 03:05:52;;;;;;;15.10;9.18;;;;;;;20.15;80.46;97539.58;1684847;85;21035;-74
2021/06/25 03:08:21;;;;;;;17.35;8.98;;;;;;;20.05;82.23;97539.41;1684867;85;21398;-74
2021/06/25 03:10:52;;;;;;;16.75;9.78;;;;;;;20.01;80.20;97536.11;1684612;85;21423;-74
2021/06/25 03:13:20;;;;;;;19.45;9.63;;;;;;;19.97;80.03;97533.75;1684935;85;21008;-74
2021/06/25 03:15:50;;;;;;;19.90;9.50;;;;;;;19.96;79.90;97532.04;1684881;85;21459;-74
2021/06/25 03:18:21;;;;;;;15.72;9.83;;;;;;;19.97;80.25;97528.37;1687031;84;20988;-74
2021/06/25 03:20:49;;;;;;;17.75;10.00;;;;;;;19.93;80.58;97523.69;1713184;84;21054;-73
2021/06/25 03:23:16;;;;;;;13.98;8.73;;;;;;;19.91;80.21;97508.16;1711512;84;20944;-74
2021/06/25 03:25:44;;;;;;;17.92;9.60;;;;;;;19.95;80.06;97511.47;1713331;84;21040;-74
2021/06/25 03:28:14;;;;;;;21.12;9.13;;;;;;;19.97;79.79;97512.23;1713452;84;21054;-74
2021/06/25 03:30:44;;;;;;;15.35;8.43;;;;;;;19.97;79.92;97507.72;1713194;84;21040;-73
2021/06/25 03:33:14;;;;;;;16.35;9.28;;;;;;;20.02;79.79;97507.39;1713299;84;21063;-74
2021/06/25 03:35:43;;;;;;;21.62;9.25;;;;;;;20.07;79.83;97511.06;1713451;84;20996;-74
2021/06/25 03:38:12;;;;;;;21.97;9.78;;;;;;;20.09;80.42;97506.44;1713340;84;21072;-74
2021/06/25 03:40:40;;;;;;;17.90;9.45;;;;;;;20.09;81.61;97503.24;1713342;82;21052;-73
2021/06/25 03:43:07;;;;;;;13.88;8.80;;;;;;;20.12;80.94;97503.02;1685291;84;21093;-74
2021/06/25 03:45:34;;;;;;;18.32;9.28;;;;;;;20.16;80.94;97501.81;1713333;84;21036;-74
2021/06/25 03:48:04;;;;;;;18.70;8.60;;;;;;;20.22;80.51;97503.66;1713406;84;21024;-74
2021/06/25 03:50:34;;;;;;;16.40;8.60;;;;;;;20.27;80.58;97503.65;1685396;84;21036;-74
2021/06/25 03:53:01;;;;;;;18.15;8.98;;;;;;;20.34;80.58;97503.20;1684731;85;21056;-74
2021/06/25 03:55:30;;;;;;;18.80;8.20;;;;;;;20.41;80.32;97498.56;1684849;85;21092;-74
2021/06/25 03:57:59;;;;;;;14.05;7.78;;;;;;;20.50;80.17;97496.09;1700900;84;21044;-74
2021/06/25 04:00:29;;;;;;;18.75;7.58;;;;;;;20.57;80.00;97496.00;1690615;84;21397;-74
2021/06/25 04:02:58;;;;;;;19.90;8.63;;;;;;;20.67;79.78;97497.46;1684943;85;21449;-74
2021/06/25 04:05:29;;;;;;;13.62;8.13;;;;;;;20.75;79.50;97496.88;1684863;85;21013;-74
2021/06/25 04:07:58;;;;;;;18.98;8.35;;;;;;;20.79;79.08;97490.24;1684565;85;21107;-74
2021/06/25 04:10:28;;;;;;;21.25;8.60;;;;;;;20.86;78.75;97499.59;1684760;85;21036;-74
2021/06/25 04:13:00;;;;;;;21.10;8.33;;;;;;;20.93;78.48;97501.31;1690254;84;21388;-74
2021/06/25 04:15:31;;;;;;;21.80;8.70;;;;;;;20.97;77.94;97504.97;1711936;84;21075;-74
2021/06/25 04:18:00;;;;;;;14.45;7.47;;;;;;;20.94;77.55;97506.58;1711762;84;21465;-74
2021/06/25 04:20:28;;;;;;;24.43;8.63;;;;;;;20.93;77.39;97511.58;1712436;84;20976;-74
2021/06/25 04:22:56;;;;;;;28.65;8.28;;;;;;;20.93;76.93;97502.15;1713446;84;21016;-74
2021/06/25 04:25:28;;;;;;;15.78;8.10;;;;;;;20.93;77.01;97503.50;1713259;84;21031;-74
2021/06/25 04:27:57;;;;;;;19.57;8.30;;;;;;;20.98;76.75;97508.53;1713263;84;21056;-74
2021/06/25 04:30:26;;;;;;;15.80;8.30;;;;;;;21.03;76.76;97504.11;1713266;84;21012;-74
2021/06/25 04:32:54;;;;;;;18.73;7.92;;;;;;;21.06;76.38;97503.36;1684985;84;21043;-74
2021/06/25 04:35:23;;;;;;;21.07;8.73;;;;;;;21.12;76.30;97504.72;1712970;84;21556;-74
2021/06/25 04:37:54;;;;;;;15.72;7.65;;;;;;;21.17;76.03;97502.50;1713205;84;21104;-74
2021/06/25 04:40:23;;;;;;;18.77;8.33;;;;;;;21.23;76.22;97507.89;1713122;82;21024;-74
2021/06/25 04:42:53;;;;;;;21.62;8.25;;;;;;;21.26;76.04;97495.49;1713368;84;21004;-74
2021/06/25 04:45:21;;;;;;;15.53;8.65;;;;;;;21.29;75.72;97499.81;1713222;84;21036;-74
2021/06/25 04:47:48;;;;;;;20.10;9.23;;;;;;;21.31;75.54;97494.66;1713340;84;21060;-74
2021/06/25 04:50:17;;;;;;;17.73;8.08;;;;;;;21.35;75.58;97489.86;1685107;84;21051;-74
2021/06/25 04:52:48;;;;;;;19.82;8.43;;;;;;;21.38;75.47;97497.67;1684733;85;21032;-74
2021/06/25 04:55:18;;;;;;;19.30;8.10;;;;;;;21.42;75.21;97496.95;1684673;85;21442;-74
2021/06/25 04:57:54;;;;;;;18.87;8.48;;;;;;;21.45;75.09;97502.95;1657491;85;21438;-74
2021/06/25 05:00:24;;;;;;;16.52;7.83;;;;;;;21.50;74.75;97510.64;1684851;85;21056;-75
2021/06/25 05:02:57;;;;;;;21.65;7.72;;;;;;;21.53;74.74;97506.35;1684842;85;21056;-75
2021/06/25 05:05:28;;;;;;;23.62;8.68;;;;;;;21.58;74.52;97502.78;1684564;85;21033;-74
2021/06/25 05:07:59;;;;;;;18.90;7.75;;;;;;;21.64;74.27;97500.08;1684859;85;21008;-74
2021/06/25 05:10:28;;;;;;;20.95;7.75;;;;;;;21.68;74.11;97499.32;1684785;85;21005;-74
2021/06/25 05:12:58;;;;;;;22.37;7.75;;;;;;;21.74;74.05;97497.00;1684611;85;21025;-74
2021/06/25 05:15:30;;;;;;;22.00;7.85;;;;;;;21.80;74.05;97496.96;1684826;85;21161;-75
2021/06/25 05:18:11;;;;;;;15.38;7.85;;;;;;;21.88;73.78;97493.13;1684950;84;21469;-74
2021/06/25 05:20:40;;;;;;;21.97;8.68;;;;;;;21.98;73.40;97496.41;1705110;84;21024;-75
2021/06/25 05:23:12;;;;;;;22.85;7.90;;;;;;;22.07;73.37;97498.80;1713209;84;20953;-75
2021/06/25 05:25:39;;;;;;;17.73;8.08;;;;;;;22.17;73.31;97502.94;1713231;84;21005;-75
2021/06/25 05:28:11;;;;;;;22.25;9.18;;;;;;;22.26;73.59;97504.34;1713350;84;21016;-74
2021/06/25 05:30:41;;;;;;;18.87;10.00;;;;;;;22.36;73.25;97498.16;1713025;84;21064;-74
2021/06/25 05:33:09;;;;;;;19.62;8.30;;;;;;;22.47;73.28;97498.10;1713313;84;21004;-74
2021/06/25 05:35:39;;;;;;;17.55;9.45;;;;;;;22.63;73.23;97496.27;1713338;83;21048;-74
2021/06/25 05:38:13;;;;;;;34.15;16.95;;;;;;;22.75;73.05;97497.56;1713149;84;21020;-74
2021/06/25 05:40:42;;;;;;;23.15;13.65;;;;;;;22.91;73.11;97494.34;1727950;83;20967;-74
2021/06/25 05:43:11;;;;;;;26.23;13.80;;;;;;;23.05;73.22;97493.13;1734166;83;20994;-74
2021/06/25 05:45:42;;;;;;;27.20;12.25;;;;;;;23.19;73.22;97494.58;1734351;82;21022;-74
2021/06/25 05:48:11;;;;;;;24.82;12.73;;;;;;;23.32;74.04;97496.58;1728734;83;20966;-75
2021/06/25 05:50:41;;;;;;;21.57;12.98;;;;;;;23.46;73.08;97495.83;1705308;84;20989;-74
2021/06/25 05:53:10;;;;;;;22.73;12.60;;;;;;;23.58;73.20;97490.64;1707340;84;21058;-74
2021/06/25 05:55:42;;;;;;;27.00;14.10;;;;;;;23.72;73.20;97497.98;1679103;85;21027;-75
2021/06/25 05:58:09;;;;;;;25.68;13.68;;;;;;;23.85;73.47;97503.12;1684532;84;21070;-74
2021/06/25 06:00:40;;;;;;;23.20;13.28;;;;;;;23.98;73.17;97510.95;1732515;83;21027;-74
2021/06/25 06:03:10;;;;;;;27.80;12.80;;;;;;;24.10;73.23;97511.69;1732568;83;21032;-74
2021/06/25 06:05:38;;;;;;;20.17;12.63;;;;;;;24.23;73.03;97519.03;1732466;83;21626;-75
2021/06/25 06:08:08;;;;;;;22.85;12.33;;;;;;;24.36;72.94;97527.33;1732285;83;21012;-74
2021/06/25 06:10:39;;;;;;;29.57;12.00;;;;;;;24.48;72.47;97530.73;1732541;83;20964;-75
2021/06/25 06:13:11;;;;;;;24.80;11.18;;;;;;;24.56;71.68;97536.29;1745621;81;21033;-75
2021/06/25 06:15:39;;;;;;;29.07;12.20;;;;;;;24.69;72.00;97535.97;1752846;82;21034;-74
2021/06/25 06:18:09;;;;;;;24.63;12.40;;;;;;;24.81;71.85;97533.94;1753602;81;21441;-74
2021/06/25 06:20:39;;;;;;;25.72;11.43;;;;;;;24.92;71.46;97534.30;1762362;81;21398;-74
2021/06/25 06:31:30;;;;;;;23.87;11.57;;;;;;;25.22;70.20;97529.61;1762558;81;21016;-74
2021/06/25 06:34:08;;;;;;;20.72;11.33;;;;;;;25.27;70.06;97525.94;1762655;81;21016;-74
2021/06/25 06:36:34;;;;;;;24.30;10.88;;;;;;;25.35;70.09;97529.25;1761624;81;21004;-74
2021/06/25 06:39:05;;;;;;;23.10;12.53;;;;;;;25.40;69.83;97528.30;1762886;81;21029;-74
2021/06/25 06:41:36;;;;;;;28.75;16.73;;;;;;;25.48;69.59;97533.48;1742071;81;21006;-73
2021/06/25 06:44:05;;;;;;;25.32;13.98;;;;;;;25.53;69.37;97534.70;1740856;81;20970;-75
2021/06/25 06:46:38;;;;;;;22.33;11.90;;;;;;;25.57;69.16;97538.86;1740903;82;21010;-74
2021/06/25 06:49:07;;;;;;;26.68;11.08;;;;;;;25.62;69.07;97545.17;1724309;82;21327;-74
2021/06/25 06:51:39;;;;;;;26.23;11.93;;;;;;;25.68;69.03;97540.52;1711426;84;21065;-74
2021/06/25 06:54:11;;;;;;;26.80;11.70;;;;;;;25.76;68.94;97528.02;1711718;83;21012;-74
2021/06/25 06:56:39;;;;;;;23.80;12.93;;;;;;;25.83;68.80;97523.70;1711227;82;21518;-74
2021/06/25 06:59:09;;;;;;;22.52;12.75;;;;;;;25.91;68.81;97521.05;1711367;83;21526;-74
2021/06/25 07:01:36;;;;;;;24.92;12.78;;;;;;;26.00;68.74;97524.72;1711294;84;21098;-74
2021/06/25 07:04:05;;;;;;;29.82;13.00;;;;;;;26.07;68.60;97520.88;1711533;83;21064;-74
2021/06/25 07:06:34;;;;;;;25.17;11.93;;;;;;;26.15;68.43;97516.02;1674671;86;21451;-74
2021/06/25 07:09:01;;;;;;;23.92;12.68;;;;;;;26.24;67.94;97511.01;1672283;85;21009;-74
2021/06/25 07:11:29;;;;;;;28.77;12.03;;;;;;;26.34;67.69;97514.52;1672517;86;21001;-74
2021/06/25 07:14:00;;;;;;;25.68;11.90;;;;;;;26.42;67.65;97512.36;1706985;84;21458;-75
2021/06/25 07:16:28;;;;;;;27.67;13.55;;;;;;;26.49;67.21;97499.83;1706527;84;21029;-75
2021/06/25 07:18:57;;;;;;;23.65;11.88;;;;;;;26.59;67.18;97479.36;1720676;83;21018;-75
2021/06/25 07:21:23;;;;;;;21.97;11.93;;;;;;;26.59;67.18;97479.36;1735613;83;20982;-75
2021/06/25 07:23:52;;;;;;;23.02;11.45;;;;;;;26.71;67.11;97485.87;1735457;81;21052;-75
2021/06/25 07:26:23;;;;;;;23.70;12.18;;;;;;;26.74;67.07;97471.45;1735741;81;21005;-75
2021/06/25 07:28:49;;;;;;;21.82;11.18;;;;;;;26.91;66.63;97482.92;1735841;83;20998;-74
2021/06/25 07:31:21;;;;;;;23.77;12.20;;;;;;;27.08;66.54;97478.44;1735563;83;21052;-75
2021/06/25 07:33:49;;;;;;;23.70;12.78;;;;;;;27.08;66.54;97478.44;1736057;83;20990;-75
2021/06/25 07:36:22;;;;;;;40.52;28.65;;;;;;;27.17;66.37;97476.59;1735993;81;21608;-75
2021/06/25 07:38:50;;;;;;;43.33;29.35;;;;;;;27.28;66.28;97474.42;1735921;83;21037;-75
2021/06/25 07:41:17;;;;;;;26.90;15.05;;;;;;;27.39;65.87;97471.05;1735775;81;21419;-75
2021/06/25 07:43:47;;;;;;;23.12;12.10;;;;;;;27.50;65.76;97472.63;1735573;83;21122;-75
2021/06/25 07:46:18;;;;;;;25.97;11.08;;;;;;;27.62;65.73;97472.70;1735946;83;20997;-75
2021/06/25 07:48:47;;;;;;;20.50;11.30;;;;;;;27.74;65.33;97475.08;1720765;82;20998;-75
2021/06/25 07:51:18;;;;;;;20.90;11.80;;;;;;;27.84;64.91;97465.38;1684630;84;21002;-74
2021/06/25 07:53:47;;;;;;;25.52;11.00;;;;;;;27.96;64.75;97459.95;1706700;83;21029;-75
2021/06/25 07:56:17;;;;;;;22.90;11.65;;;;;;;28.09;64.45;97447.68;1706677;84;20974;-75
2021/06/25 07:58:47;;;;;;;26.97;11.18;;;;;;;28.23;64.21;97440.18;1706640;84;20978;-75
2021/06/25 08:01:17;;;;;;;20.85;11.50;;;;;;;28.37;63.75;97436.45;1706553;83;21045;-75
2021/06/25 08:03:48;;;;;;;17.82;11.12;;;;;;;28.53;63.55;97436.44;1706556;84;21069;-75
2021/06/25 08:06:17;;;;;;;25.70;11.48;;;;;;;28.70;62.77;97433.16;1706450;83;20961;-75
2021/06/25 08:08:46;;;;;;;26.48;11.30;;;;;;;28.88;61.95;97423.90;1706288;84;21450;-75
2021/06/25 08:11:13;;;;;;;26.80;11.30;;;;;;;29.05;61.86;97423.31;1706415;84;21463;-74
2021/06/25 08:13:43;;;;;;;25.25;11.03;;;;;;;29.28;61.50;97432.58;1706513;83;20985;-75
2021/06/25 08:16:11;;;;;;;22.37;10.28;;;;;;;29.52;60.77;97428.89;1734208;83;20918;-75
2021/06/25 08:18:41;;;;;;;23.85;9.70;;;;;;;29.76;60.11;97425.63;1673286;85;21078;-75
2021/06/25 08:21:09;;;;;;;30.02;16.93;;;;;;;30.00;59.73;97419.63;1700343;84;21004;-75
2021/06/25 08:23:36;;;;;;;23.60;11.00;;;;;;;30.22;58.78;97417.92;1700109;84;21013;-75
2021/06/25 08:26:06;;;;;;;25.15;9.98;;;;;;;30.43;57.94;97405.44;1700456;84;21104;-75
2021/06/25 08:28:35;;;;;;;28.02;10.03;;;;;;;30.54;57.39;97409.06;1700417;84;21033;-75
2021/06/25 08:31:02;;;;;;;22.67;9.90;;;;;;;30.61;56.73;97417.36;1700532;84;21109;-75
2021/06/25 08:33:32;;;;;;;24.40;8.90;;;;;;;30.69;56.40;97410.95;1700253;84;21045;-75
2021/06/25 08:36:04;;;;;;;22.42;8.75;;;;;;;30.76;55.59;97422.84;1700287;84;21029;-75
2021/06/25 08:38:33;;;;;;;20.60;9.43;;;;;;;30.86;55.47;97418.47;1700346;84;21081;-75
2021/06/25 08:41:01;;;;;;;22.35;8.73;;;;;;;30.93;55.83;97422.13;1706274;82;21028;-75
2021/06/25 08:43:31;;;;;;;26.25;9.45;;;;;;;31.03;55.82;97422.35;1713120;84;21068;-75
2021/06/25 08:46:02;;;;;;;21.30;9.95;;;;;;;31.09;55.66;97425.17;1713271;84;21024;-75
2021/06/25 08:48:34;;;;;;;15.70;8.43;;;;;;;31.20;55.29;97425.72;1712334;84;21008;-75
2021/06/25 08:51:06;;;;;;;22.40;9.40;;;;;;;31.29;54.89;97423.23;1713366;84;21021;-75
2021/06/25 08:53:39;;;;;;;26.77;9.08;;;;;;;31.35;54.70;97417.52;1685900;84;21024;-75
2021/06/25 08:56:07;;;;;;;22.67;8.55;;;;;;;31.38;54.53;97415.73;1713203;84;21044;-75
2021/06/25 08:58:37;;;;;;;24.05;8.75;;;;;;;31.46;54.30;97417.00;1713433;84;21438;-75
2021/06/25 09:01:07;;;;;;;19.40;9.33;;;;;;;31.47;54.32;97421.42;1713175;84;21008;-75
2021/06/25 09:03:37;;;;;;;36.25;22.42;;;;;;;31.55;54.22;97422.36;1685039;84;21031;-75
2021/06/25 09:06:16;;;;;;;19.90;10.60;;;;;;;31.60;54.13;97418.52;1713578;84;21015;-75
2021/06/25 09:08:46;;;;;;;15.93;8.65;;;;;;;31.60;53.52;97415.23;1713145;84;21079;-75
2021/06/25 09:11:32;;;;;;;21.33;9.53;;;;;;;31.62;53.42;97409.57;1713477;84;21016;-75
2021/06/25 09:14:04;;;;;;;20.20;8.50;;;;;;;31.71;53.46;97406.17;1713288;84;20997;-75
2021/06/25 09:16:36;;;;;;;17.77;8.40;;;;;;;31.87;53.07;97400.48;1713033;84;21048;-75
2021/06/25 09:19:14;;;;;;;20.90;8.40;;;;;;;31.97;52.63;97402.86;1692616;84;21080;-75
2021/06/25 09:22:03;;;;;;;25.17;9.40;;;;;;;31.97;52.28;97402.86;1685118;85;21000;-75
2021/06/25 09:24:33;;;;;;;30.20;8.95;;;;;;;31.93;52.07;97401.59;1685091;85;21661;-75
2021/06/25 09:27:07;;;;;;;13.38;7.97;;;;;;;31.83;52.38;97391.43;1685076;85;21005;-75
2021/06/25 09:29:41;;;;;;;25.27;9.08;;;;;;;31.72;52.38;97390.92;1684935;85;21032;-75
2021/06/25 09:32:10;;;;;;;21.15;8.60;;;;;;;31.59;52.29;97389.44;1685114;85;21036;-75
2021/06/25 09:34:49;;;;;;;20.75;9.48;;;;;;;31.46;52.65;97395.09;1684959;85;21144;-75
2021/06/25 09:37:20;;;;;;;19.40;8.45;;;;;;;31.37;52.78;97385.84;1685056;84;21040;-75
2021/06/25 09:40:08;;;;;;;16.15;8.55;;;;;;;31.22;53.21;97391.64;1684923;85;21512;-75
2021/06/25 09:42:39;;;;;;;27.22;10.70;;;;;;;31.17;53.35;97391.38;1684919;85;21048;-75
2021/06/25 09:45:16;;;;;;;23.30;9.20;;;;;;;31.06;53.41;97385.05;1684726;85;21104;-75
2021/06/25 09:47:56;;;;;;;28.23;10.48;;;;;;;30.94;53.49;97382.78;1693377;84;21031;-75
2021/06/25 09:50:32;;;;;;;19.32;9.38;;;;;;;30.82;53.63;97384.33;1712892;84;21064;-75
2021/06/25 09:53:05;;;;;;;19.52;8.75;;;;;;;30.67;53.96;97390.62;1713596;84;21025;-75
2021/06/25 09:55:54;;;;;;;21.07;9.28;;;;;;;30.54;54.54;97402.73;1713494;84;20968;-75
2021/06/25 09:58:45;;;;;;;20.88;9.35;;;;;;;30.36;54.69;97434.54;1713333;84;21031;-75
2021/06/25 10:01:24;;;;;;;24.82;9.20;;;;;;;30.27;54.71;97447.45;1713587;84;21100;-75
2021/06/25 10:04:01;;;;;;;20.52;9.18;;;;;;;30.13;54.99;97438.16;1713149;83;21056;-75
2021/06/25 10:06:34;;;;;;;26.75;9.30;;;;;;;30.01;55.34;97441.31;1712095;84;21028;-75
2021/06/25 10:09:04;;;;;;;23.07;8.73;;;;;;;29.84;54.95;97454.75;1713552;84;21013;-75
2021/06/25 10:11:34;;;;;;;26.93;10.05;;;;;;;29.63;53.77;97480.34;1710797;84;21001;-74
2021/06/25 10:14:06;;;;;;;41.45;8.73;;;;;;;29.03;69.57;97515.40;1702225;84;21068;-72
2021/06/25 10:16:37;;;;;;;45.88;8.30;;;;;;;26.22;71.69;97530.66;1702126;84;21046;-72
2021/06/25 10:19:07;;;;;;;40.30;8.25;;;;;;;23.01;92.52;97529.03;1687654;84;21012;-72
2021/06/25 10:21:36;;;;;;;48.23;11.08;;;;;;;21.28;100.00;97507.50;1657914;85;21470;-71
2021/06/25 10:24:06;;;;;;;56.28;12.73;;;;;;;21.00;100.00;97500.33;1684840;85;21490;-72
2021/06/25 10:26:34;;;;;;;52.23;12.78;;;;;;;20.90;100.00;97494.34;1684782;85;21063;-72
2021/06/25 10:29:04;;;;;;;53.60;13.88;;;;;;;20.83;100.00;97479.13;1684653;85;21060;-72
2021/06/25 10:31:34;;;;;;;52.35;15.18;;;;;;;20.94;100.00;97472.91;1685021;85;21020;-72
2021/06/25 10:34:04;;;;;;;64.70;16.95;;;;;;;21.01;100.00;97477.80;1684885;85;21092;-73
2021/06/25 10:36:35;;;;;;;50.67;19.52;;;;;;;21.12;100.00;97466.16;1684934;85;21052;-72
2021/06/25 10:39:08;;;;;;;46.70;20.90;;;;;;;21.26;100.00;97453.72;1684754;85;21040;-73
2021/06/25 10:41:58;;;;;;;55.38;20.70;;;;;;;21.42;100.00;97428.22;1667219;84;21499;-72
2021/06/25 10:44:45;;;;;;;67.45;36.00;;;;;;;21.65;100.00;97426.28;1705334;84;21021;-72
2021/06/25 10:47:17;;;;;;;51.02;23.00;;;;;;;21.92;100.00;97429.49;1707312;83;20962;-72
2021/06/25 10:50:06;;;;;;;52.35;22.85;;;;;;;22.06;100.00;97438.61;1711610;83;21441;-72
2021/06/25 10:52:43;;;;;;;51.70;23.20;;;;;;;22.19;100.00;97435.70;1731662;83;21412;-72
2021/06/25 10:55:17;;;;;;;39.98;23.02;;;;;;;22.34;100.00;97437.55;1699963;83;21116;-72
2021/06/25 10:57:56;;;;;;;43.90;18.95;;;;;;;22.45;100.00;97448.77;1731553;83;21019;-72
2021/06/25 11:00:42;;;;;;;44.05;17.48;;;;;;;22.53;100.00;97465.64;1731843;83;21425;-72
2021/06/25 11:03:41;;;;;;;38.58;17.42;;;;;;;22.52;100.00;97478.78;1731369;83;21506;-72
2021/06/25 11:06:31;;;;;;;34.95;19.15;;;;;;;22.45;100.00;97473.58;1731989;83;21026;-72
2021/06/25 11:09:05;;;;;;;37.33;21.12;;;;;;;22.50;100.00;97469.98;1731652;83;21437;-72
2021/06/25 11:11:33;;;;;;;;;;;;;;;22.64;100.00;97489.05;1734356;83;21015;-72
2021/06/25 11:14:01;;;;;;;36.80;17.35;;;;;;;22.63;100.00;97494.92;1731707;83;20089;-72
2021/06/25 11:16:31;;;;;;;31.82;15.20;;;;;;;22.58;100.00;97507.98;1731837;83;21035;-72
2021/06/25 11:19:02;;;;;;;32.48;15.70;;;;;;;22.49;100.00;97497.46;1705184;83;20988;-73
2021/06/25 11:21:45;;;;;;;36.77;16.02;;;;;;;22.51;100.00;97478.43;1702518;84;21023;-73
2021/06/25 11:24:19;;;;;;;36.68;16.60;;;;;;;22.52;100.00;97449.95;1702766;84;21007;-72
2021/06/25 11:26:59;;;;;;;35.83;16.10;;;;;;;22.57;100.00;97461.72;1731320;81;20991;-72
2021/06/25 11:29:42;;;;;;;32.65;14.78;;;;;;;22.60;100.00;97455.19;1736112;83;20989;-72
2021/06/25 11:32:12;;;;;;;36.10;11.63;;;;;;;22.51;100.00;97452.78;1737806;83;20987;-73
2021/06/25 11:34:40;;;;;;;27.48;6.67;;;;;;;22.31;100.00;97456.73;1737787;83;21008;-72
2021/06/25 11:37:09;;;;;;;28.27;5.35;;;;;;;21.61;99.05;97468.83;1737854;83;20999;-72
2021/06/25 11:39:39;;;;;;;26.15;6.72;;;;;;;21.04;97.89;97470.80;1708759;83;21087;-72
2021/06/25 11:42:17;;;;;;;26.27;6.30;;;;;;;20.78;100.00;97485.84;1725729;82;20993;-72
2021/06/25 11:44:51;;;;;;;36.25;7.05;;;;;;;20.51;97.98;97505.41;1716489;82;21470;-72
2021/06/25 11:47:31;;;;;;;35.60;6.15;;;;;;;20.21;98.77;97503.30;1722748;82;21041;-72